Time;durP1;ratioP1;P1;durP2;ratioP2;P2;SDS_P1;SDS_P2;PMS_P1;PMS_P2;Temp;Humidity;BMP_temperature;BMP_pressure;BME280_temperature;BME280_humidity;BME280_pressure;Samples;Min_cycle;Max_cycle;Signal;HPM_P1;HPM_P2
2023/08/17 00:01:59;;;;;;;11.82;3.40;;;;;;;;;;5043698;28;20298;-59
2023/08/17 00:04:26;;;;;;;8.05;3.08;;;;;;;;;;5043971;28;20535;-57
2023/08/17 00:06:53;;;;;;;9.85;2.92;;;;;;;;;;5041946;28;20061;-51
2023/08/17 00:09:20;;;;;;;8.68;2.97;;;;;;;;;;5043454;28;20224;-49
2023/08/17 00:11:47;;;;;;;9.40;2.83;;;;;;;;;;5045932;28;20025;-57
2023/08/17 00:14:13;;;;;;;7.22;2.53;;;;;;;;;;5044702;28;20063;-56
2023/08/17 00:16:41;;;;;;;11.23;3.15;;;;;;;;;;5045655;28;20305;-49
2023/08/17 00:19:08;;;;;;;9.63;3.00;;;;;;;;;;5045250;28;20033;-52
2023/08/17 00:21:35;;;;;;;8.38;2.67;;;;;;;;;;5045912;28;20085;-54
2023/08/17 00:24:02;;;;;;;10.88;3.08;;;;;;;;;;5044510;28;20088;-51
2023/08/17 00:26:29;;;;;;;7.18;3.03;;;;;;;;;;5045648;28;20183;-53
2023/08/17 00:28:55;;;;;;;10.32;2.97;;;;;;;;;;5045352;28;20032;-51
2023/08/17 00:31:22;;;;;;;8.15;2.95;;;;;;;;;;5045800;28;20021;-51
2023/08/17 00:33:49;;;;;;;6.90;2.63;;;;;;;;;;5045357;28;20028;-55
2023/08/17 00:36:15;;;;;;;9.07;2.70;;;;;;;;;;5045435;28;20052;-57
2023/08/17 00:38:43;;;;;;;7.25;2.53;;;;;;;;;;5045238;28;20017;-56
2023/08/17 00:41:10;;;;;;;9.93;3.00;;;;;;;;;;5045305;28;20022;-50
2023/08/17 00:43:36;;;;;;;8.80;2.95;;;;;;;;;;5044384;28;20033;-58
2023/08/17 00:46:03;;;;;;;7.38;2.80;;;;;;;;;;5045377;28;20080;-54
2023/08/17 00:48:31;;;;;;;6.95;2.22;;;;;;;;;;5045201;28;20206;-57
2023/08/17 00:50:58;;;;;;;8.57;2.88;;;;;;;;;;5045236;28;20043;-52
2023/08/17 00:53:27;;;;;;;7.55;2.67;;;;;;;;;;5044946;28;20033;-56
2023/08/17 00:55:54;;;;;;;12.05;2.60;;;;;;;;;;5044941;28;20029;-56
2023/08/17 00:58:21;;;;;;;10.13;2.65;;;;;;;;;;5045256;28;20033;-52
2023/08/17 01:00:48;;;;;;;9.65;2.88;;;;;;;;;;5045172;28;20067;-54
2023/08/17 01:03:16;;;;;;;8.32;2.42;;;;;;;;;;5044770;28;20211;-52
2023/08/17 01:05:42;;;;;;;8.50;2.95;;;;;;;;;;5044996;28;20036;-56
2023/08/17 01:08:09;;;;;;;8.27;2.33;;;;;;;;;;5044675;28;20025;-55
2023/08/17 01:10:48;;;;;;;9.77;2.13;;;;;;;;;;5045143;28;20036;-53
2023/08/17 01:13:35;;;;;;;10.00;2.33;;;;;;;;;;5044570;28;20105;-57
2023/08/17 01:16:07;;;;;;;8.60;2.58;;;;;;;;;;5044580;28;20033;-54
2023/08/17 01:18:33;;;;;;;;;;;;;;;;;;5045104;28;20025;-51
2023/08/17 01:21:02;;;;;;;12.73;2.95;;;;;;;;;;5044541;28;20106;-54
2023/08/17 01:23:29;;;;;;;9.43;2.40;;;;;;;;;;5044457;28;20022;-55
2023/08/17 01:25:57;;;;;;;5.97;1.85;;;;;;;;;;5027166;28;20029;-55
2023/08/17 01:28:24;;;;;;;8.60;2.10;;;;;;;;;;5044168;28;20085;-49
2023/08/17 01:30:55;;;;;;;9.63;2.20;;;;;;;;;;5044353;28;20029;-53
2023/08/17 01:33:25;;;;;;;5.72;2.20;;;;;;;;;;5044343;28;20033;-51
2023/08/17 01:35:58;;;;;;;8.38;2.10;;;;;;;;;;5043981;28;20045;-55
2023/08/17 01:38:27;;;;;;;6.72;2.13;;;;;;;;;;5044250;28;20045;-57
2023/08/17 01:40:53;;;;;;;8.50;2.10;;;;;;;;;;5044421;28;20092;-56
2023/08/17 01:43:21;;;;;;;9.57;2.30;;;;;;;;;;5044288;28;20028;-54
2023/08/17 01:45:49;;;;;;;11.10;2.42;;;;;;;;;;5044255;28;20017;-50
2023/08/17 01:48:15;;;;;;;8.68;2.40;;;;;;;;;;5044092;28;20085;-53
2023/08/17 01:50:42;;;;;;;5.03;1.80;;;;;;;;;;5044107;28;20052;-57
2023/08/17 01:53:12;;;;;;;7.45;2.13;;;;;;;;;;5044190;28;20030;-54
2023/08/17 01:55:39;;;;;;;8.00;2.00;;;;;;;;;;5044298;28;20017;-53
2023/08/17 01:58:06;;;;;;;6.88;2.17;;;;;;;;;;5044465;28;20424;-56
2023/08/17 02:00:32;;;;;;;8.95;2.50;;;;;;;;;;5044202;28;20047;-54
2023/08/17 02:03:02;;;;;;;5.88;2.38;;;;;;;;;;5042497;28;20092;-49
2023/08/17 02:05:29;;;;;;;20.52;2.97;;;;;;;;;;5040818;28;20038;-51
2023/08/17 02:07:55;;;;;;;8.95;2.60;;;;;;;;;;5035366;28;20018;-48
2023/08/17 02:10:22;;;;;;;7.47;2.55;;;;;;;;;;5038685;28;20040;-54
2023/08/17 02:12:49;;;;;;;6.13;2.40;;;;;;;;;;5037725;28;20025;-53
2023/08/17 02:15:16;;;;;;;7.60;2.17;;;;;;;;;;5051829;28;20027;-57
2023/08/17 02:17:42;;;;;;;7.60;2.15;;;;;;;;;;5055071;28;20029;-52
2023/08/17 02:20:10;;;;;;;7.93;2.72;;;;;;;;;;5043868;28;20080;-50
2023/08/17 02:22:36;;;;;;;11.43;2.60;;;;;;;;;;5043480;28;20310;-52
2023/08/17 02:25:04;;;;;;;15.35;2.85;;;;;;;;;;5041381;28;20024;-55
2023/08/17 02:27:31;;;;;;;23.77;3.40;;;;;;;;;;5038763;28;20033;-57
2023/08/17 02:29:58;;;;;;;28.75;3.08;;;;;;;;;;5043176;28;20262;-52
2023/08/17 02:32:24;;;;;;;21.02;2.92;;;;;;;;;;5043995;28;20038;-49
2023/08/17 02:34:51;;;;;;;16.75;3.20;;;;;;;;;;5042415;28;20060;-49
2023/08/17 02:37:17;;;;;;;10.35;2.70;;;;;;;;;;5033908;28;20280;-46
2023/08/17 02:39:44;;;;;;;10.35;2.28;;;;;;;;;;5042900;28;20041;-49
2023/08/17 02:42:11;;;;;;;11.23;2.40;;;;;;;;;;5043887;28;20033;-52
2023/08/17 02:44:39;;;;;;;14.40;2.42;;;;;;;;;;5044078;28;20024;-57
2023/08/17 02:47:05;;;;;;;10.05;2.20;;;;;;;;;;5044364;28;20066;-48
2023/08/17 02:49:32;;;;;;;12.00;2.50;;;;;;;;;;5047495;28;20045;-47
2023/08/17 02:51:59;;;;;;;9.15;2.20;;;;;;;;;;5047125;28;20067;-50
2023/08/17 02:54:28;;;;;;;5.88;1.95;;;;;;;;;;5047357;28;20037;-57
2023/08/17 02:56:54;;;;;;;6.15;2.30;;;;;;;;;;5047069;28;20365;-55
2023/08/17 02:59:21;;;;;;;8.40;2.28;;;;;;;;;;5040751;28;20049;-52
2023/08/17 03:01:48;;;;;;;8.07;2.67;;;;;;;;;;5046981;28;20025;-55
2023/08/17 03:04:14;;;;;;;7.38;2.38;;;;;;;;;;5043345;28;20340;-54
2023/08/17 03:06:41;;;;;;;6.10;2.58;;;;;;;;;;5046069;28;20049;-51
2023/08/17 03:09:08;;;;;;;10.35;3.10;;;;;;;;;;5044512;28;20033;-49
2023/08/17 03:11:34;;;;;;;14.18;4.30;;;;;;;;;;5046971;28;20026;-54
2023/08/17 03:14:01;;;;;;;13.25;4.72;;;;;;;;;;5047277;28;20029;-57
2023/08/17 03:16:30;;;;;;;13.30;4.65;;;;;;;;;;5046951;28;20096;-51
2023/08/17 03:18:56;;;;;;;12.55;3.88;;;;;;;;;;5047223;28;20309;-48
2023/08/17 03:21:23;;;;;;;7.68;3.30;;;;;;;;;;5046852;28;20357;-53
2023/08/17 03:23:58;;;;;;;10.40;3.63;;;;;;;;;;5046540;28;20084;-54
2023/08/17 03:26:27;;;;;;;9.00;3.70;;;;;;;;;;5030242;28;20314;-52
2023/08/17 03:28:54;;;;;;;10.88;3.22;;;;;;;;;;5040469;28;20017;-51
2023/08/17 03:31:24;;;;;;;8.30;2.88;;;;;;;;;;5046628;28;20293;-53
2023/08/17 03:33:51;;;;;;;11.65;2.75;;;;;;;;;;5033777;28;20313;-58
2023/08/17 03:36:19;;;;;;;11.00;2.38;;;;;;;;;;5047016;28;20356;-54
2023/08/17 03:38:49;;;;;;;8.95;2.50;;;;;;;;;;5046087;28;20052;-57
2023/08/17 03:41:26;;;;;;;6.43;2.00;;;;;;;;;;5045155;28;20214;-53
2023/08/17 03:43:53;;;;;;;8.60;2.08;;;;;;;;;;5052181;28;20032;-55
2023/08/17 03:46:22;;;;;;;5.60;1.88;;;;;;;;;;5052662;28;20029;-52
2023/08/17 03:48:49;;;;;;;6.07;1.70;;;;;;;;;;5046484;28;20049;-53
2023/08/17 03:51:16;;;;;;;8.88;2.83;;;;;;;;;;5046543;28;20031;-54
2023/08/17 03:53:42;;;;;;;8.27;2.05;;;;;;;;;;5044737;28;20041;-52
2023/08/17 03:56:09;;;;;;;5.60;1.83;;;;;;;;;;5046089;28;20033;-54
2023/08/17 03:58:35;;;;;;;7.60;1.98;;;;;;;;;;5046233;28;20040;-53
2023/08/17 04:01:03;;;;;;;8.00;1.80;;;;;;;;;;5045422;28;20322;-54
2023/08/17 04:03:31;;;;;;;7.53;2.63;;;;;;;;;;5046313;28;20225;-51
2023/08/17 04:05:57;;;;;;;10.70;2.50;;;;;;;;;;5046186;28;20322;-49
2023/08/17 04:08:24;;;;;;;7.68;2.45;;;;;;;;;;5044660;28;20063;-49
2023/08/17 04:10:50;;;;;;;7.03;2.28;;;;;;;;;;5045012;28;20025;-54
2023/08/17 04:13:20;;;;;;;7.20;2.35;;;;;;;;;;5045885;28;20057;-52
2023/08/17 04:15:46;;;;;;;10.57;2.28;;;;;;;;;;5045726;28;20045;-52
2023/08/17 04:18:13;;;;;;;9.82;2.35;;;;;;;;;;5045770;28;20028;-54
2023/08/17 04:20:39;;;;;;;10.27;2.38;;;;;;;;;;5045824;28;20083;-52
2023/08/17 04:23:06;;;;;;;8.60;2.33;;;;;;;;;;5045466;28;20361;-56
2023/08/17 04:25:33;;;;;;;8.00;2.42;;;;;;;;;;5044940;28;20084;-54
2023/08/17 04:28:00;;;;;;;7.88;2.28;;;;;;;;;;5045106;28;20084;-55
2023/08/17 04:30:26;;;;;;;9.32;2.70;;;;;;;;;;5044352;28;20033;-57
2023/08/17 04:32:53;;;;;;;8.10;2.50;;;;;;;;;;5045585;28;20025;-52
2023/08/17 04:35:20;;;;;;;7.97;2.75;;;;;;;;;;5054106;28;20052;-56
2023/08/17 04:37:47;;;;;;;10.93;2.70;;;;;;;;;;5059369;28;20037;-54
2023/08/17 04:40:14;;;;;;;6.85;2.30;;;;;;;;;;5042941;28;20032;-58
2023/08/17 04:42:42;;;;;;;6.07;2.35;;;;;;;;;;5064982;28;20032;-53
2023/08/17 04:45:09;;;;;;;7.68;2.25;;;;;;;;;;5065439;28;20248;-52
2023/08/17 04:47:35;;;;;;;9.25;2.50;;;;;;;;;;5065450;28;20076;-51
2023/08/17 04:50:02;;;;;;;8.07;2.25;;;;;;;;;;5065740;28;20032;-53
2023/08/17 04:52:29;;;;;;;7.03;2.30;;;;;;;;;;5065286;28;20083;-55
2023/08/17 04:54:56;;;;;;;11.30;1.90;;;;;;;;;;5065548;28;20040;-55
2023/08/17 04:57:22;;;;;;;7.72;1.80;;;;;;;;;;5052831;28;20336;-55
2023/08/17 04:59:49;;;;;;;8.55;2.08;;;;;;;;;;5054619;28;20051;-55
2023/08/17 05:02:16;;;;;;;8.60;2.10;;;;;;;;;;5055432;28;20209;-58
2023/08/17 05:04:43;;;;;;;5.88;1.63;;;;;;;;;;5051328;28;20029;-60
2023/08/17 05:07:09;;;;;;;6.90;1.88;;;;;;;;;;5052307;28;20037;-63
2023/08/17 05:09:36;;;;;;;6.15;1.90;;;;;;;;;;5031632;28;20040;-52
2023/08/17 05:12:03;;;;;;;7.80;1.90;;;;;;;;;;5049293;28;20036;-59
2023/08/17 05:14:29;;;;;;;7.45;1.92;;;;;;;;;;5053963;28;20333;-57
2023/08/17 05:16:56;;;;;;;7.90;2.22;;;;;;;;;;5052977;28;20098;-59
2023/08/17 05:19:23;;;;;;;5.65;1.58;;;;;;;;;;5050841;28;20434;-56
2023/08/17 05:21:51;;;;;;;6.47;2.00;;;;;;;;;;5053884;28;20057;-61
2023/08/17 05:24:17;;;;;;;6.93;1.90;;;;;;;;;;5031741;28;20024;-54
2023/08/17 05:26:44;;;;;;;5.75;1.85;;;;;;;;;;5044652;28;20036;-61
2023/08/17 05:29:11;;;;;;;7.43;1.83;;;;;;;;;;5044969;28;20033;-54
2023/08/17 05:31:38;;;;;;;9.25;2.25;;;;;;;;;;5044405;28;20032;-54
2023/08/17 05:34:04;;;;;;;9.38;2.13;;;;;;;;;;5044701;28;20028;-54
2023/08/17 05:36:31;;;;;;;7.43;2.00;;;;;;;;;;5043633;28;20045;-54
2023/08/17 05:38:57;;;;;;;6.93;2.10;;;;;;;;;;5043712;28;20021;-52
2023/08/17 05:41:24;;;;;;;6.38;1.95;;;;;;;;;;5042272;28;20241;-51
2023/08/17 05:43:51;;;;;;;5.90;1.80;;;;;;;;;;5042978;28;20025;-57
2023/08/17 05:46:18;;;;;;;9.23;1.80;;;;;;;;;;5043345;28;20025;-56
2023/08/17 05:48:44;;;;;;;6.50;1.80;;;;;;;;;;5042959;28;20021;-53
2023/08/17 05:51:11;;;;;;;7.32;1.70;;;;;;;;;;5043446;28;20029;-52
2023/08/17 05:53:37;;;;;;;5.82;1.80;;;;;;;;;;5043464;28;20017;-54
2023/08/17 05:56:04;;;;;;;11.60;2.28;;;;;;;;;;5043401;28;20037;-54
2023/08/17 05:58:31;;;;;;;8.23;1.63;;;;;;;;;;5043478;28;20241;-58
2023/08/17 06:01:05;;;;;;;9.43;1.77;;;;;;;;;;5043207;28;20084;-54
2023/08/17 06:03:31;;;;;;;7.30;2.25;;;;;;;;;;5043506;28;20072;-52
2023/08/17 06:05:58;;;;;;;9.10;2.08;;;;;;;;;;5025626;28;20269;-52
2023/08/17 06:08:25;;;;;;;8.98;1.95;;;;;;;;;;5042206;28;20025;-52
2023/08/17 06:10:51;;;;;;;7.90;2.10;;;;;;;;;;5042780;28;20083;-52
2023/08/17 06:13:18;;;;;;;8.75;1.98;;;;;;;;;;5043123;28;20037;-53
2023/08/17 06:15:45;;;;;;;7.18;1.70;;;;;;;;;;5043060;28;20337;-51
2023/08/17 06:18:11;;;;;;;7.43;1.55;;;;;;;;;;5043271;28;20096;-56
2023/08/17 06:20:38;;;;;;;4.35;1.60;;;;;;;;;;5043055;28;20089;-52
2023/08/17 06:23:04;;;;;;;7.50;1.95;;;;;;;;;;5041734;28;20036;-52
2023/08/17 06:25:31;;;;;;;7.88;1.80;;;;;;;;;;5043079;28;20381;-52
2023/08/17 06:27:58;;;;;;;7.85;2.38;;;;;;;;;;5042990;28;20321;-54
2023/08/17 06:30:24;;;;;;;6.28;1.90;;;;;;;;;;5042844;28;20025;-56
2023/08/17 06:32:52;;;;;;;10.57;2.22;;;;;;;;;;5042918;28;20034;-50
2023/08/17 06:35:19;;;;;;;12.10;2.80;;;;;;;;;;4967381;28;2175572;-56
2023/08/17 06:37:45;;;;;;;8.35;2.47;;;;;;;;;;5043639;28;20037;-51
2023/08/17 06:40:12;;;;;;;7.88;1.92;;;;;;;;;;5043551;28;20204;-53
2023/08/17 06:42:39;;;;;;;9.23;2.00;;;;;;;;;;5043719;28;20030;-53
2023/08/17 06:45:05;;;;;;;8.55;1.70;;;;;;;;;;5043958;28;20192;-54
2023/08/17 06:47:32;;;;;;;9.68;1.80;;;;;;;;;;5043506;28;20348;-52
2023/08/17 06:49:59;;;;;;;8.25;2.20;;;;;;;;;;5044183;28;20025;-57
2023/08/17 06:52:25;;;;;;;10.70;2.00;;;;;;;;;;5042854;28;20028;-52
2023/08/17 06:54:52;;;;;;;7.95;2.00;;;;;;;;;;5025681;28;20207;-54
2023/08/17 06:57:21;;;;;;;12.77;2.28;;;;;;;;;;5043643;28;20041;-52
2023/08/17 06:59:48;;;;;;;12.65;2.00;;;;;;;;;;5043858;28;20028;-53
2023/08/17 07:02:15;;;;;;;6.72;1.83;;;;;;;;;;5043374;28;20045;-52
2023/08/17 07:04:41;;;;;;;8.82;1.92;;;;;;;;;;5043901;28;20059;-53
2023/08/17 07:07:08;;;;;;;6.53;1.60;;;;;;;;;;5043486;28;20032;-52
2023/08/17 07:09:34;;;;;;;9.68;2.20;;;;;;;;;;5043698;28;20037;-58
2023/08/17 07:12:01;;;;;;;8.57;1.63;;;;;;;;;;5043011;28;20044;-54
2023/08/17 07:14:28;;;;;;;9.50;1.85;;;;;;;;;;5043729;28;20193;-53
2023/08/17 07:16:54;;;;;;;9.73;2.00;;;;;;;;;;5043077;28;20096;-53
2023/08/17 07:19:21;;;;;;;8.30;2.10;;;;;;;;;;5043613;28;20041;-52
2023/08/17 07:21:48;;;;;;;7.28;2.30;;;;;;;;;;5043312;28;20025;-53
2023/08/17 07:24:16;;;;;;;5.93;1.80;;;;;;;;;;5043447;28;20029;-53
2023/08/17 07:26:43;;;;;;;10.65;2.35;;;;;;;;;;5043366;28;20241;-56
2023/08/17 07:29:11;;;;;;;11.95;1.85;;;;;;;;;;5043549;28;20010;-52
2023/08/17 07:31:38;;;;;;;7.53;1.85;;;;;;;;;;5042999;28;20033;-53
2023/08/17 07:34:05;;;;;;;10.10;2.00;;;;;;;;;;5045514;28;20079;-56
2023/08/17 07:36:32;;;;;;;9.23;1.73;;;;;;;;;;5046641;28;20053;-58
2023/08/17 07:38:59;;;;;;;10.00;2.28;;;;;;;;;;5046455;28;20025;-50
2023/08/17 07:41:26;;;;;;;9.00;2.03;;;;;;;;;;5046648;28;20033;-52
2023/08/17 07:43:53;;;;;;;8.25;1.80;;;;;;;;;;5046863;28;20022;-51
2023/08/17 07:46:20;;;;;;;7.45;1.90;;;;;;;;;;5046141;28;20125;-51
2023/08/17 07:48:46;;;;;;;11.77;1.90;;;;;;;;;;5046640;28;20021;-53
2023/08/17 07:51:13;;;;;;;8.07;2.00;;;;;;;;;;5046528;28;20029;-48
2023/08/17 07:53:40;;;;;;;7.72;1.83;;;;;;;;;;5046415;28;20053;-53
2023/08/17 07:56:06;;;;;;;9.05;1.88;;;;;;;;;;5046444;28;20093;-52
2023/08/17 07:58:33;;;;;;;7.93;2.20;;;;;;;;;;5046562;28;20085;-52
2023/08/17 08:01:00;;;;;;;9.13;2.03;;;;;;;;;;5046045;28;20037;-51
2023/08/17 08:03:26;;;;;;;9.32;1.60;;;;;;;;;;5046337;28;20035;-57
2023/08/17 08:05:53;;;;;;;5.05;1.77;;;;;;;;;;5046143;28;20031;-53
2023/08/17 08:08:20;;;;;;;7.95;1.70;;;;;;;;;;5046073;28;20036;-54
2023/08/17 08:10:46;;;;;;;7.30;1.75;;;;;;;;;;5044899;28;20204;-54
2023/08/17 08:13:14;;;;;;;5.85;1.48;;;;;;;;;;5046156;28;20021;-55
2023/08/17 08:15:40;;;;;;;7.28;1.88;;;;;;;;;;5045872;28;20309;-57
2023/08/17 08:18:07;;;;;;;10.35;1.70;;;;;;;;;;5046049;28;20051;-56
2023/08/17 08:20:34;;;;;;;7.75;1.50;;;;;;;;;;5045904;28;20053;-56
2023/08/17 08:23:00;;;;;;;6.80;1.80;;;;;;;;;;5045726;28;20032;-56
2023/08/17 08:25:27;;;;;;;8.65;1.92;;;;;;;;;;5046066;28;20511;-54
2023/08/17 08:27:53;;;;;;;7.07;1.83;;;;;;;;;;5045788;28;20028;-52
2023/08/17 08:30:20;;;;;;;7.53;1.63;;;;;;;;;;5045739;28;20037;-58
2023/08/17 08:32:47;;;;;;;10.27;1.50;;;;;;;;;;5045551;28;20041;-55
2023/08/17 08:35:13;;;;;;;7.88;1.75;;;;;;;;;;5045441;28;20048;-54
2023/08/17 08:37:40;;;;;;;7.72;1.85;;;;;;;;;;5044797;28;20043;-55
2023/08/17 08:40:10;;;;;;;8.63;1.90;;;;;;;;;;5045277;28;20444;-54
2023/08/17 08:42:36;;;;;;;7.88;1.85;;;;;;;;;;5045577;28;20021;-61
2023/08/17 08:45:03;;;;;;;6.72;1.80;;;;;;;;;;5044948;28;20029;-55
2023/08/17 08:47:32;;;;;;;5.82;1.40;;;;;;;;;;5045295;28;20044;-57
2023/08/17 08:50:02;;;;;;;9.45;1.42;;;;;;;;;;5045851;28;20033;-53
2023/08/17 08:52:34;;;;;;;5.80;1.52;;;;;;;;;;5045288;28;20037;-59
2023/08/17 08:55:04;;;;;;;8.98;1.70;;;;;;;;;;5045749;28;20025;-51
2023/08/17 08:57:31;;;;;;;7.80;1.50;;;;;;;;;;5045294;28;20056;-54
2023/08/17 08:59:58;;;;;;;7.05;1.42;;;;;;;;;;5045459;28;20389;-58
2023/08/17 09:02:24;;;;;;;8.93;1.98;;;;;;;;;;5045231;28;20025;-56
2023/08/17 09:04:51;;;;;;;4.25;1.65;;;;;;;;;;5045542;28;20029;-56
2023/08/17 09:07:19;;;;;;;3.83;1.42;;;;;;;;;;5044948;28;20225;-55
2023/08/17 09:09:45;;;;;;;5.25;1.48;;;;;;;;;;5045448;28;20318;-54
2023/08/17 09:12:12;;;;;;;7.72;1.73;;;;;;;;;;5045029;28;20041;-53
2023/08/17 09:14:40;;;;;;;4.50;1.33;;;;;;;;;;5045193;28;20026;-53
2023/08/17 09:17:07;;;;;;;3.45;1.40;;;;;;;;;;5044971;28;20017;-53
2023/08/17 09:19:34;;;;;;;6.70;1.25;;;;;;;;;;5045181;28;20037;-54
2023/08/17 09:22:01;;;;;;;6.18;1.58;;;;;;;;;;5044648;28;20195;-54
2023/08/17 09:24:37;;;;;;;7.13;1.75;;;;;;;;;;5044710;28;20025;-55
2023/08/17 09:27:04;;;;;;;7.28;1.60;;;;;;;;;;5044703;28;20037;-56
2023/08/17 09:29:36;;;;;;;5.32;1.45;;;;;;;;;;5043921;28;20025;-51
2023/08/17 09:32:07;;;;;;;6.53;1.90;;;;;;;;;;5036455;28;20321;-51
2023/08/17 09:34:33;;;;;;;6.15;1.50;;;;;;;;;;5044660;28;20435;-53
2023/08/17 09:37:04;;;;;;;9.68;2.05;;;;;;;;;;5044392;28;20033;-55
2023/08/17 09:39:31;;;;;;;5.07;1.73;;;;;;;;;;5044775;28;20025;-58
2023/08/17 09:41:57;;;;;;;12.85;1.98;;;;;;;;;;5044319;28;20257;-54
2023/08/17 09:44:24;;;;;;;5.43;1.92;;;;;;;;;;5044703;28;20294;-53
2023/08/17 09:46:51;;;;;;;5.40;2.03;;;;;;;;;;5044362;28;20021;-52
2023/08/17 09:49:19;;;;;;;8.25;1.98;;;;;;;;;;5044610;28;20097;-54
2023/08/17 09:51:45;;;;;;;4.13;1.98;;;;;;;;;;5044304;28;20044;-51
2023/08/17 09:54:31;;;;;;;7.05;1.85;;;;;;;;;;5044584;28;20017;-53
2023/08/17 09:56:58;;;;;;;9.43;2.08;;;;;;;;;;5043760;28;20097;-54
2023/08/17 09:59:25;;;;;;;9.05;1.88;;;;;;;;;;5044464;28;20032;-55
2023/08/17 10:01:52;;;;;;;7.15;1.65;;;;;;;;;;5044053;28;20376;-56
2023/08/17 10:04:22;;;;;;;7.63;2.15;;;;;;;;;;5044223;28;20021;-59
2023/08/17 10:06:52;;;;;;;4.82;1.52;;;;;;;;;;5044037;28;20036;-54
2023/08/17 10:09:25;;;;;;;5.18;1.80;;;;;;;;;;5043845;28;20029;-56
2023/08/17 10:11:52;;;;;;;6.38;2.10;;;;;;;;;;5043956;28;20029;-53
2023/08/17 10:14:23;;;;;;;4.97;1.70;;;;;;;;;;5044330;28;20317;-56
2023/08/17 10:16:59;;;;;;;5.35;1.60;;;;;;;;;;5043737;28;20097;-55
2023/08/17 10:19:44;;;;;;;13.23;2.20;;;;;;;;;;5044222;28;20049;-54
2023/08/17 10:22:10;;;;;;;9.98;2.15;;;;;;;;;;5043735;28;20080;-51
2023/08/17 10:24:38;;;;;;;11.35;2.30;;;;;;;;;;5044200;28;20082;-53
2023/08/17 10:27:06;;;;;;;10.57;2.22;;;;;;;;;;5043842;28;20022;-52
2023/08/17 10:29:33;;;;;;;14.82;3.25;;;;;;;;;;5043919;28;20052;-52
2023/08/17 10:32:02;;;;;;;14.57;2.60;;;;;;;;;;5041529;28;20113;-52
2023/08/17 10:34:29;;;;;;;14.20;3.30;;;;;;;;;;5043976;28;20040;-52
2023/08/17 10:36:57;;;;;;;15.13;2.30;;;;;;;;;;5045113;28;20183;-59
2023/08/17 10:39:26;;;;;;;13.77;2.45;;;;;;;;;;5050009;28;20297;-56
2023/08/17 10:41:53;;;;;;;13.75;2.67;;;;;;;;;;5054690;28;20037;-52
2023/08/17 10:44:42;;;;;;;12.90;3.05;;;;;;;;;;5063650;28;20024;-59
2023/08/17 10:47:24;;;;;;;9.93;2.47;;;;;;;;;;5015753;28;20116;-53
2023/08/17 10:49:51;;;;;;;10.07;2.42;;;;;;;;;;5063966;28;20355;-53
2023/08/17 10:52:32;;;;;;;10.32;3.05;;;;;;;;;;5063534;28;20036;-49
2023/08/17 10:55:05;;;;;;;12.20;3.75;;;;;;;;;;5063315;28;20021;-52
2023/08/17 10:57:34;;;;;;;12.90;4.32;;;;;;;;;;5049900;28;20041;-53
2023/08/17 11:00:31;;;;;;;12.45;5.03;;;;;;;;;;5043769;28;20244;-53
2023/08/17 11:03:00;;;;;;;11.70;5.60;;;;;;;;;;5046476;28;20037;-51
2023/08/17 11:05:43;;;;;;;13.55;5.88;;;;;;;;;;5061564;28;20215;-56
2023/08/17 11:08:14;;;;;;;10.07;5.20;;;;;;;;;;5049502;28;20025;-54
2023/08/17 11:10:42;;;;;;;10.98;5.18;;;;;;;;;;5047214;28;20056;-55
2023/08/17 11:13:08;;;;;;;14.40;4.60;;;;;;;;;;5047337;28;20049;-54
2023/08/17 11:15:39;;;;;;;11.15;4.10;;;;;;;;;;5047319;28;20037;-55
2023/08/17 11:18:07;;;;;;;8.32;3.38;;;;;;;;;;5047332;28;20302;-55
2023/08/17 11:20:34;;;;;;;11.30;3.60;;;;;;;;;;5047386;28;20025;-54
2023/08/17 11:23:01;;;;;;;14.88;4.38;;;;;;;;;;5046282;28;21036;-56
2023/08/17 11:25:28;;;;;;;8.68;3.28;;;;;;;;;;5047577;28;20040;-56
2023/08/17 11:27:55;;;;;;;10.27;3.10;;;;;;;;;;5046864;28;20035;-59
2023/08/17 11:30:22;;;;;;;10.63;3.00;;;;;;;;;;5046806;28;20037;-55
2023/08/17 11:32:52;;;;;;;6.80;2.80;;;;;;;;;;5046849;28;20105;-51
2023/08/17 11:35:19;;;;;;;8.80;2.97;;;;;;;;;;5046690;28;20049;-52
2023/08/17 11:37:46;;;;;;;9.82;2.67;;;;;;;;;;5046392;28;20322;-51
2023/08/17 11:40:13;;;;;;;6.95;2.33;;;;;;;;;;5046783;28;20079;-52
2023/08/17 11:42:40;;;;;;;8.95;2.15;;;;;;;;;;5046757;28;20018;-57
2023/08/17 11:45:10;;;;;;;7.38;2.17;;;;;;;;;;5047056;28;20045;-54
2023/08/17 11:47:40;;;;;;;9.38;1.80;;;;;;;;;;5046710;28;20040;-53
2023/08/17 11:50:07;;;;;;;5.53;2.10;;;;;;;;;;5046563;28;20037;-54
2023/08/17 11:52:36;;;;;;;5.68;2.08;;;;;;;;;;5046583;28;20373;-55
2023/08/17 11:55:07;;;;;;;6.10;2.17;;;;;;;;;;5047042;28;20025;-56
2023/08/17 11:57:34;;;;;;;7.47;1.88;;;;;;;;;;5046382;28;20095;-54
2023/08/17 12:00:01;;;;;;;7.00;1.73;;;;;;;;;;5046423;28;20037;-56
2023/08/17 12:02:28;;;;;;;7.88;2.15;;;;;;;;;;5045843;28;20021;-49
2023/08/17 12:04:56;;;;;;;5.88;1.80;;;;;;;;;;5042972;28;20033;-51
2023/08/17 12:07:24;;;;;;;6.18;2.30;;;;;;;;;;5046048;28;20250;-55
2023/08/17 12:09:51;;;;;;;5.30;1.95;;;;;;;;;;5046592;28;20352;-51
2023/08/17 12:12:19;;;;;;;8.52;1.95;;;;;;;;;;5043796;28;20041;-55
2023/08/17 12:14:47;;;;;;;6.30;1.70;;;;;;;;;;5045587;28;20029;-53
2023/08/17 12:17:20;;;;;;;6.45;1.70;;;;;;;;;;5045425;28;20071;-55
2023/08/17 12:19:54;;;;;;;7.43;2.22;;;28.70;97.80;;;;;;5041669;28;20248;-51
2023/08/17 12:22:25;;;;;;;8.70;2.10;;;28.50;97.90;;;;;;5035478;28;20314;-55
2023/08/17 12:24:52;;;;;;;5.63;1.63;;;28.50;97.90;;;;;;5046359;28;20209;-57
2023/08/17 12:27:21;;;;;;;6.25;1.98;;;28.50;98.00;;;;;;5043903;28;20093;-57
2023/08/17 12:29:51;;;;;;;6.32;1.95;;;28.60;98.60;;;;;;5046270;28;20036;-53
2023/08/17 12:32:20;;;;;;;9.00;1.95;;;;;;;;;;5050524;28;20033;-54
2023/08/17 12:34:48;;;;;;;5.45;2.00;;;;;;;;;;5054989;28;20195;-54
2023/08/17 12:37:20;;;;;;;5.38;1.77;;;;;;;;;;5056075;28;20016;-54
2023/08/17 12:39:47;;;;;;;3.58;1.52;;;;;;;;;;5055801;28;20060;-53
2023/08/17 12:42:14;;;;;;;9.52;2.00;;;;;;;;;;5054030;28;20041;-51
2023/08/17 12:44:42;;;;;;;9.98;2.03;;;;;;;;;;5055998;28;20068;-59
2023/08/17 12:47:08;;;;;;;5.88;2.10;;;;;;;;;;5053621;28;20336;-52
2023/08/17 12:49:36;;;;;;;6.68;2.00;;;;;;;;;;5043704;28;20032;-52
2023/08/17 12:52:03;;;;;;;6.75;2.30;;;;;;;;;;5054884;28;20016;-56
2023/08/17 12:54:29;;;;;;;10.07;2.83;;;;;;;;;;5054382;28;20208;-57
2023/08/17 12:56:56;;;;;;;7.65;3.15;;;;;;;;;;5056516;28;20029;-54
2023/08/17 12:59:23;;;;;;;9.90;3.08;;;;;;;;;;5052184;28;20023;-55
2023/08/17 13:01:49;;;;;;;7.78;2.90;;;;;;;;;;5055203;28;20163;-52
2023/08/17 13:04:16;;;;;;;9.18;3.28;;;;;;;;;;5047134;28;20029;-52
2023/08/17 13:06:51;;;;;;;9.23;3.20;;;;;;;;;;5047088;28;20018;-54
2023/08/17 13:09:18;;;;;;;8.80;3.05;;;;;;;;;;5050626;28;20144;-55
2023/08/17 13:11:46;;;;;;;6.72;2.80;;;;;;;;;;5055970;28;20195;-51
2023/08/17 13:14:16;;;;;;;9.93;3.60;;;;;;;;;;5049491;28;20026;-52
2023/08/17 13:16:42;;;;;;;8.57;2.65;;;;;;;;;;5054471;28;20029;-51
2023/08/17 13:19:09;;;;;;;10.20;3.30;;;;;;;;;;5054563;28;20029;-60
2023/08/17 13:21:36;;;;;;;5.57;2.42;;;;;;;;;;5049731;28;20226;-57
2023/08/17 13:24:03;;;;;;;10.13;2.42;;;;;;;;;;5049351;28;20025;-56
2023/08/17 13:26:30;;;;;;;25.48;4.53;;;;;;;;;;5044565;28;20039;-57
2023/08/17 13:28:57;;;;;;;20.85;3.88;;;;;;;;;;5044802;28;20354;-53
2023/08/17 13:31:25;;;;;;;16.48;2.97;;;;;;;;;;5043644;28;20037;-61
2023/08/17 13:33:52;;;;;;;17.10;3.50;;;;;;;;;;5044581;28;20088;-56
2023/08/17 13:36:19;;;;;;;11.00;2.42;;;;;;;;;;5044286;28;20053;-54
2023/08/17 13:38:46;;;;;;;15.30;2.80;;;;;;;;;;5044127;28;20047;-57
2023/08/17 13:41:13;;;;;;;12.02;3.10;;;;;;;;;;5044113;28;20302;-58
2023/08/17 13:43:39;;;;;;;9.23;2.28;;;;;;;;;;5044072;28;20250;-52
2023/08/17 13:46:08;;;;;;;6.22;2.15;;;;;;;;;;5044306;28;20041;-55
2023/08/17 13:48:34;;;;;;;7.75;2.10;;;;;;;;;;5044385;28;20037;-55
2023/08/17 13:51:01;;;;;;;6.68;1.90;;;;;;;;;;5044215;28;20029;-53
2023/08/17 13:53:28;;;;;;;9.40;2.20;;;;;;;;;;5044364;28;20056;-55
2023/08/17 13:55:54;;;;;;;21.15;3.05;;;;;;;;;;5044224;28;20041;-55
2023/08/17 13:58:21;;;;;;;25.55;3.15;;;;;;;;;;5044356;28;20021;-54
2023/08/17 14:00:48;;;;;;;25.90;3.65;;;;;;;;;;5044020;28;20033;-55
2023/08/17 14:03:15;;;;;;;18.90;2.78;;;;;;;;;;5043769;28;20075;-55
2023/08/17 14:05:41;;;;;;;19.48;3.35;;;;;;;;;;5044071;28;20021;-56
2023/08/17 14:08:10;;;;;;;15.38;3.55;;;;;;;;;;5043973;28;20045;-59
2023/08/17 14:10:37;;;;;;;16.65;2.60;;;;;;;;;;5043825;28;20029;-55
2023/08/17 14:13:04;;;;;;;15.65;2.22;;;;;;;;;;5043912;28;20018;-53
2023/08/17 14:15:32;;;;;;;13.20;2.40;;;;;;;;;;5044120;28;20033;-56
2023/08/17 14:17:59;;;;;;;12.15;2.80;;;;;;;;;;5043749;28;20052;-55
2023/08/17 14:20:26;;;;;;;9.65;2.17;;;;;;;;;;5043854;28;20029;-52
2023/08/17 14:22:53;;;;;;;10.55;2.38;;;;;;;;;;5044567;28;20032;-54
2023/08/17 14:25:20;;;;;;;8.48;2.20;;;;;;;;;;5043796;28;20025;-54
2023/08/17 14:27:46;;;;;;;7.10;2.22;;;;;;;;;;5043924;28;20135;-58
2023/08/17 14:30:13;;;;;;;9.07;2.20;;;;;;;;;;5044061;28;20341;-54
2023/08/17 14:32:40;;;;;;;7.25;1.90;;;;;;;;;;5043631;28;20030;-53
2023/08/17 14:35:13;;;;;;;8.15;2.08;;;;;;;;;;5043584;28;20087;-56
2023/08/17 14:37:39;;;;;;;9.02;1.83;;;;;;;;;;5043683;28;20233;-53
2023/08/17 14:40:06;;;;;;;8.82;1.92;;;;;;;;;;5043388;28;20033;-53
2023/08/17 14:42:33;;;;;;;7.05;1.95;;;;;;;;;;5043732;28;20191;-52